Time;durP1;ratioP1;P1;durP2;ratioP2;P2;SDS_P1;SDS_P2;PMS_P1;PMS_P2;Temp;Humidity;BMP_temperature;BMP_pressure;BME280_temperature;BME280_humidity;BME280_pressure;Samples;Min_cycle;Max_cycle;Signal;HPM_P1;HPM_P2
2022/01/15 00:00:12;;;;;;;12.23;6.57;;;-1.00;93.70;;;;;;5054213;28;20303;-69
2022/01/15 00:02:38;;;;;;;13.52;7.85;;;-0.90;92.20;;;;;;5053345;28;20111;-69
2022/01/15 00:05:04;;;;;;;13.63;8.25;;;-0.90;92.80;;;;;;5051683;28;20382;-69
2022/01/15 00:07:29;;;;;;;13.27;7.97;;;-0.90;93.40;;;;;;5054716;28;20053;-69
2022/01/15 00:09:55;;;;;;;14.35;7.80;;;-0.90;93.20;;;;;;5052924;28;20027;-69
2022/01/15 00:12:21;;;;;;;16.58;7.72;;;-1.00;93.70;;;;;;5055239;28;20108;-69
2022/01/15 00:14:46;;;;;;;12.73;7.57;;;-1.00;93.00;;;;;;5051808;28;20037;-69
2022/01/15 00:17:43;;;;;;;14.23;7.10;;;-1.00;93.20;;;;;;5052127;28;20025;-70
2022/01/15 00:20:07;;;;;;;;;;;-1.10;93.60;;;;;;5045143;28;20025;-70
2022/01/15 00:22:32;;;;;;;11.75;6.35;;;-1.20;93.10;;;;;;5057819;28;19943;-69
2022/01/15 00:24:58;;;;;;;11.43;6.00;;;-1.20;93.00;;;;;;5059831;28;20372;-70
2022/01/15 00:27:24;;;;;;;13.18;7.00;;;-1.30;92.90;;;;;;5049227;28;20025;-70
2022/01/15 00:29:49;;;;;;;9.55;5.75;;;-1.30;93.50;;;;;;5059455;28;20218;-70
2022/01/15 00:32:15;;;;;;;9.65;5.05;;;-1.40;93.30;;;;;;5056423;28;20070;-69
2022/01/15 00:34:40;;;;;;;12.35;6.55;;;-1.40;93.00;;;;;;5058272;28;20048;-70
2022/01/15 00:37:06;;;;;;;9.50;5.07;;;-1.40;92.60;;;;;;5057284;28;20347;-69
2022/01/15 00:39:32;;;;;;;12.02;7.03;;;-1.40;93.60;;;;;;5048496;28;20373;-69
2022/01/15 00:41:58;;;;;;;9.45;5.78;;;-1.50;93.90;;;;;;5042502;28;20327;-69
2022/01/15 00:44:26;;;;;;;9.93;5.20;;;-1.50;93.30;;;;;;5054234;28;20040;-69
2022/01/15 00:46:52;;;;;;;9.77;5.38;;;-1.60;93.30;;;;;;5056623;28;20021;-69
2022/01/15 00:49:18;;;;;;;11.52;6.18;;;-1.50;92.60;;;;;;5057969;28;20148;-69
2022/01/15 00:51:44;;;;;;;8.38;5.47;;;-1.40;92.60;;;;;;5057564;28;20020;-70
2022/01/15 00:54:12;;;;;;;12.15;6.40;;;-1.40;92.80;;;;;;5061031;28;20032;-69
2022/01/15 00:56:41;;;;;;;10.18;5.57;;;-1.40;92.70;;;;;;5054902;28;20031;-69
2022/01/15 00:59:06;;;;;;;8.27;4.88;;;-1.50;93.10;;;;;;5045208;28;20029;-69
2022/01/15 01:01:32;;;;;;;10.60;5.82;;;-1.50;92.70;;;;;;5047656;28;20418;-68
2022/01/15 01:03:58;;;;;;;9.05;4.75;;;-1.50;92.90;;;;;;5054595;28;20361;-68
2022/01/15 01:06:24;;;;;;;10.38;5.40;;;-1.60;93.50;;;;;;5056424;28;20036;-68
2022/01/15 01:08:50;;;;;;;12.25;5.47;;;-1.70;94.10;;;;;;5058040;28;20152;-68
2022/01/15 01:11:22;;;;;;;9.13;4.93;;;-1.80;93.00;;;;;;5056415;28;20056;-69
2022/01/15 01:24:20;;;;;;;8.10;4.45;;;-2.10;94.60;;;;;;5037362;28;20381;-70
2022/01/15 01:27:03;;;;;;;7.35;3.90;;;-2.20;94.50;;;;;;5051588;28;20055;-70
2022/01/15 01:32:15;;;;;;;7.95;3.38;;;-2.30;93.60;;;;;;5036475;28;20039;-70
2022/01/15 01:34:43;;;;;;;6.55;3.50;;;-2.20;93.60;;;;;;5048122;28;20595;-70
2022/01/15 01:37:16;;;;;;;7.07;3.55;;;-2.30;94.30;;;;;;5045344;28;20059;-70
2022/01/15 01:45:10;;;;;;;5.97;3.13;;;-2.40;94.20;;;;;;5055655;28;20445;-69
2022/01/15 01:47:41;;;;;;;7.60;3.95;;;-2.30;93.90;;;;;;5052619;28;20086;-70
2022/01/15 01:50:27;;;;;;;8.88;4.40;;;-2.30;94.30;;;;;;5052576;28;20028;-69
2022/01/15 01:52:56;;;;;;;5.93;3.53;;;-2.30;94.50;;;;;;5036278;28;20033;-69
2022/01/15 01:55:25;;;;;;;7.75;4.45;;;-2.30;94.30;;;;;;5043871;28;20032;-69
2022/01/15 01:57:54;;;;;;;7.97;4.40;;;-2.30;94.50;;;;;;5035398;28;20021;-68
2022/01/15 02:00:21;;;;;;;7.85;4.38;;;-2.40;94.60;;;;;;5037402;28;20355;-68
2022/01/15 02:02:52;;;;;;;7.72;3.90;;;-2.10;94.00;;;;;;5035593;28;20060;-68
2022/01/15 02:05:19;;;;;;;7.05;4.18;;;-2.10;94.80;;;;;;5053529;28;20491;-68
2022/01/15 02:07:45;;;;;;;6.68;3.80;;;-2.10;95.00;;;;;;5053268;28;20029;-68
2022/01/15 02:10:14;;;;;;;7.43;3.70;;;-2.10;95.60;;;;;;5036262;28;20032;-69
2022/01/15 02:12:40;;;;;;;6.55;3.60;;;-2.10;95.80;;;;;;5036352;28;20025;-69
2022/01/15 02:15:20;;;;;;;8.23;4.28;;;-2.10;96.10;;;;;;5039148;28;20072;-69
2022/01/15 02:17:47;;;;;;;8.07;3.58;;;-2.10;96.70;;;;;;5050409;28;20433;-68
2022/01/15 02:25:57;;;;;;;6.00;3.60;;;-2.70;97.10;;;;;;5036285;28;20044;-69
2022/01/15 02:28:29;;;;;;;6.30;3.15;;;-2.80;96.40;;;;;;5041364;28;20425;-69
2022/01/15 02:31:15;;;;;;;6.68;3.40;;;-2.80;96.20;;;;;;5047943;28;20029;-69
2022/01/15 02:33:43;;;;;;;6.47;3.50;;;-2.70;96.60;;;;;;5043811;28;21299;-69
2022/01/15 02:36:11;;;;;;;6.10;2.83;;;-2.80;96.70;;;;;;5039168;28;20013;-68
2022/01/15 02:38:38;;;;;;;6.30;2.72;;;-2.70;96.80;;;;;;5051916;28;20314;-69
2022/01/15 02:41:04;;;;;;;3.83;2.05;;;-2.80;96.70;;;;;;5035778;28;20484;-69
2022/01/15 02:43:32;;;;;;;4.05;2.10;;;-2.70;96.80;;;;;;5038427;28;20026;-69
2022/01/15 02:46:18;;;;;;;4.65;2.40;;;-2.70;96.80;;;;;;5036209;28;20064;-68
2022/01/15 02:48:45;;;;;;;3.70;1.88;;;-2.70;97.60;;;;;;5036146;28;20040;-68
2022/01/15 02:51:12;;;;;;;3.33;1.80;;;-2.80;97.50;;;;;;5034599;28;20338;-69
2022/01/15 02:53:38;;;;;;;3.85;1.90;;;-2.70;97.20;;;;;;5035103;28;20022;-69
2022/01/15 02:56:04;;;;;;;3.80;2.10;;;-2.70;98.00;;;;;;5035398;28;20029;-68
2022/01/15 02:58:32;;;;;;;5.25;2.70;;;-2.80;98.00;;;;;;5035705;28;20051;-68
2022/01/15 03:00:57;;;;;;;4.60;2.38;;;-2.80;98.00;;;;;;5042794;28;20107;-68
2022/01/15 03:03:23;;;;;;;3.72;2.10;;;-2.80;98.00;;;;;;5038568;28;20033;-68
2022/01/15 03:05:49;;;;;;;4.90;2.38;;;-2.90;98.00;;;;;;5047568;28;20075;-68
2022/01/15 03:08:14;;;;;;;4.10;2.25;;;-2.80;98.00;;;;;;5052790;28;20432;-68
2022/01/15 03:10:40;;;;;;;5.75;2.88;;;-2.80;98.00;;;;;;5038029;28;20037;-68
2022/01/15 03:13:12;;;;;;;4.50;2.20;;;-2.90;98.00;;;;;;5044476;28;20407;-68
2022/01/15 03:15:40;;;;;;;4.68;2.20;;;-2.90;98.00;;;;;;5050107;28;20024;-69
2022/01/15 03:18:05;;;;;;;3.90;1.90;;;-2.80;98.00;;;;;;5036379;28;20402;-69
2022/01/15 03:20:31;;;;;;;3.65;1.77;;;-2.90;98.00;;;;;;5035435;28;20024;-67
2022/01/15 03:22:57;;;;;;;4.22;2.13;;;-2.90;98.00;;;;;;5051937;28;20059;-68
2022/01/15 03:25:23;;;;;;;3.25;1.90;;;-3.00;98.00;;;;;;5050493;28;20036;-69
2022/01/15 03:27:52;;;;;;;3.83;1.98;;;-3.10;98.00;;;;;;5043591;28;20064;-68
2022/01/15 03:30:18;;;;;;;4.38;2.10;;;-3.20;98.00;;;;;;5034785;28;20061;-69
2022/01/15 03:32:43;;;;;;;6.03;2.10;;;-3.10;98.00;;;;;;5047575;28;20122;-68
2022/01/15 03:35:16;;;;;;;5.32;2.45;;;-3.10;98.00;;;;;;5044319;28;20036;-67
2022/01/15 03:37:45;;;;;;;4.03;2.15;;;-3.20;98.00;;;;;;5036022;28;20414;-68
2022/01/15 03:40:15;;;;;;;4.60;2.40;;;-3.10;98.00;;;;;;5034984;28;20025;-69
2022/01/15 03:42:41;;;;;;;3.42;1.98;;;-3.10;98.00;;;;;;5038245;28;20028;-67
2022/01/15 03:45:07;;;;;;;4.10;2.05;;;-3.30;98.00;;;;;;5035782;28;20396;-67
2022/01/15 03:47:33;;;;;;;4.07;2.15;;;-3.30;98.00;;;;;;5038634;28;20083;-68
2022/01/15 03:49:59;;;;;;;4.47;2.22;;;-3.30;98.00;;;;;;5036670;28;20037;-69
2022/01/15 03:52:27;;;;;;;4.93;2.20;;;-3.30;98.00;;;;;;5041771;28;20086;-68
2022/01/15 03:54:53;;;;;;;4.03;2.13;;;-3.30;98.00;;;;;;5047733;28;20033;-69
2022/01/15 03:57:18;;;;;;;3.78;2.03;;;-3.40;98.00;;;;;;5053211;28;20427;-68
2022/01/15 03:59:44;;;;;;;3.80;1.98;;;-3.30;98.00;;;;;;5044935;28;20032;-69
2022/01/15 04:02:10;;;;;;;5.90;2.97;;;-3.40;98.00;;;;;;5046038;28;20079;-68
2022/01/15 04:04:35;;;;;;;5.88;2.80;;;-3.40;98.00;;;;;;5034932;28;20037;-69
2022/01/15 04:07:01;;;;;;;4.68;2.60;;;-3.30;98.00;;;;;;5043613;28;20032;-68
2022/01/15 04:09:28;;;;;;;3.90;2.05;;;-3.10;98.00;;;;;;5056269;28;20029;-67
2022/01/15 04:11:54;;;;;;;5.22;2.45;;;-3.00;98.00;;;;;;5053038;28;20025;-69
2022/01/15 04:14:19;;;;;;;4.43;2.35;;;-3.00;98.00;;;;;;5038849;28;20299;-71
2022/01/15 04:16:45;;;;;;;5.25;2.40;;;-3.20;98.00;;;;;;5043425;28;20067;-69
2022/01/15 04:19:11;;;;;;;4.20;2.10;;;-3.20;98.00;;;;;;5041786;28;20051;-69
2022/01/15 04:21:39;;;;;;;5.35;2.85;;;-3.30;98.00;;;;;;5040766;28;20414;-70
2022/01/15 04:24:05;;;;;;;6.38;2.55;;;-3.30;98.00;;;;;;5042284;28;20041;-69
2022/01/15 04:26:31;;;;;;;3.95;2.05;;;-3.40;98.00;;;;;;5038125;28;20094;-70
2022/01/15 04:29:05;;;;;;;5.65;2.47;;;-3.50;98.00;;;;;;5042003;28;20410;-70
2022/01/15 04:31:46;;;;;;;4.82;2.50;;;-3.40;98.00;;;;;;5046144;28;20021;-69
2022/01/15 04:34:16;;;;;;;5.30;2.60;;;-3.30;98.00;;;;;;5037770;28;20017;-69
2022/01/15 04:36:43;;;;;;;6.90;2.65;;;-3.10;98.00;;;;;;5042121;28;20029;-69
2022/01/15 04:39:09;;;;;;;6.22;3.13;;;-3.00;98.00;;;;;;5039315;28;20299;-69
2022/01/15 04:41:35;;;;;;;4.68;2.58;;;-3.00;98.00;;;;;;5047076;28;20435;-69
2022/01/15 04:44:07;;;;;;;5.53;3.13;;;-3.00;98.00;;;;;;5052005;28;20033;-69
2022/01/15 04:46:34;;;;;;;4.80;2.85;;;-3.10;98.00;;;;;;5042278;28;20025;-69
2022/01/15 04:49:00;;;;;;;7.47;3.47;;;-3.20;98.00;;;;;;5037736;28;20029;-69
2022/01/15 04:51:25;;;;;;;5.72;2.70;;;-3.30;98.00;;;;;;5049118;28;20056;-69
2022/01/15 04:53:51;;;;;;;5.88;3.22;;;-3.40;98.00;;;;;;5048390;28;20024;-69
2022/01/15 04:56:16;;;;;;;6.35;3.60;;;-3.50;98.00;;;;;;5051429;28;20017;-70
2022/01/15 04:58:42;;;;;;;5.72;2.97;;;-3.70;98.00;;;;;;5044707;28;20049;-68
2022/01/15 05:01:08;;;;;;;5.00;3.00;;;-3.70;98.00;;;;;;5044002;28;20044;-70
2022/01/15 05:03:34;;;;;;;8.23;3.67;;;-3.80;98.00;;;;;;5040400;28;20029;-68
2022/01/15 05:05:59;;;;;;;7.55;4.47;;;-3.90;98.00;;;;;;5048691;28;20029;-68
2022/01/15 05:08:25;;;;;;;9.32;4.68;;;-3.80;98.00;;;;;;5055997;28;20021;-70
2022/01/15 05:10:53;;;;;;;6.80;3.63;;;-3.80;98.00;;;;;;5044748;28;20030;-69
2022/01/15 05:13:23;;;;;;;6.93;4.50;;;-3.80;98.00;;;;;;5049494;28;20023;-70
2022/01/15 05:15:49;;;;;;;8.23;4.63;;;-3.80;98.00;;;;;;5038714;28;20337;-68
2022/01/15 05:18:15;;;;;;;7.60;3.80;;;-3.80;97.70;;;;;;5047757;28;20017;-69
2022/01/15 05:20:44;;;;;;;8.40;4.30;;;-3.70;97.90;;;;;;5046684;28;20021;-69
2022/01/15 05:23:09;;;;;;;9.85;4.65;;;-3.70;98.00;;;;;;5048489;28;20041;-69
2022/01/15 05:25:35;;;;;;;7.35;3.78;;;-3.70;98.00;;;;;;5037777;28;20087;-69
2022/01/15 05:28:01;;;;;;;8.63;3.65;;;-3.80;98.00;;;;;;5041074;28;20029;-69
2022/01/15 05:30:30;;;;;;;7.13;3.63;;;-3.80;97.80;;;;;;5042526;28;20031;-70
2022/01/15 05:32:58;;;;;;;7.50;4.18;;;-3.70;97.50;;;;;;5046332;28;20115;-69
2022/01/15 05:35:26;;;;;;;9.13;3.97;;;-3.60;97.60;;;;;;5042163;28;20104;-70
2022/01/15 05:37:53;;;;;;;7.07;4.13;;;-3.70;98.00;;;;;;5037978;28;20322;-70
2022/01/15 05:40:19;;;;;;;9.60;4.90;;;-3.70;97.90;;;;;;5045144;28;20028;-69
2022/01/15 05:42:45;;;;;;;13.25;7.63;;;-3.50;97.10;;;;;;5043768;28;20034;-70
2022/01/15 05:45:12;;;;;;;11.93;6.07;;;-3.40;97.60;;;;;;5043187;28;20029;-69
2022/01/15 05:47:38;;;;;;;9.68;5.90;;;-3.40;98.00;;;;;;5050411;28;20063;-68
2022/01/15 05:50:04;;;;;;;13.07;6.72;;;-3.60;98.00;;;;;;5048545;28;20057;-69
2022/01/15 05:52:29;;;;;;;12.77;6.68;;;-3.70;97.40;;;;;;5053656;28;20036;-70
2022/01/15 05:54:55;;;;;;;14.48;7.82;;;-3.70;97.90;;;;;;5054613;28;20029;-69
2022/01/15 05:57:20;;;;;;;12.90;8.55;;;-3.70;97.90;;;;;;5044017;28;20087;-69
2022/01/15 05:59:46;;;;;;;13.85;7.97;;;-3.70;97.50;;;;;;5049548;28;20053;-69
2022/01/15 06:02:15;;;;;;;19.10;10.68;;;-3.80;97.00;;;;;;5047803;28;20178;-69
2022/01/15 06:04:40;;;;;;;21.15;12.30;;;-3.70;97.00;;;;;;5056088;28;20444;-69
2022/01/15 06:07:06;;;;;;;21.42;12.65;;;-3.60;96.10;;;;;;5052469;28;20033;-69
2022/01/15 06:09:31;;;;;;;18.52;10.65;;;-3.50;96.80;;;;;;5042857;28;20036;-69
2022/01/15 06:11:59;;;;;;;28.17;14.95;;;-3.40;96.70;;;;;;5040153;28;20477;-69
2022/01/15 06:14:24;;;;;;;67.78;29.05;;;-3.50;97.30;;;;;;5045993;28;20136;-69
2022/01/15 06:16:56;;;;;;;55.25;25.08;;;-3.50;96.80;;;;;;5036257;28;20454;-68
2022/01/15 06:19:22;;;;;;;45.10;21.08;;;-3.50;96.70;;;;;;5043902;28;20059;-69
2022/01/15 06:21:50;;;;;;;57.05;25.13;;;-3.40;96.60;;;;;;5036603;28;20415;-69
2022/01/15 06:24:16;;;;;;;41.45;18.85;;;-3.40;96.30;;;;;;5035393;28;20316;-69
2022/01/15 06:26:42;;;;;;;44.70;21.88;;;-3.30;96.30;;;;;;5051561;28;20063;-69
2022/01/15 06:29:07;;;;;;;42.85;20.85;;;-3.30;96.80;;;;;;5042615;28;20043;-69
2022/01/15 06:31:33;;;;;;;39.78;19.67;;;-3.40;97.20;;;;;;5038721;28;20040;-68
2022/01/15 06:33:59;;;;;;;40.33;20.38;;;-3.40;96.80;;;;;;5051033;28;20028;-69
2022/01/15 06:36:26;;;;;;;34.35;17.40;;;-3.40;97.10;;;;;;5061618;28;20033;-68
2022/01/15 06:38:52;;;;;;;33.95;18.05;;;-3.40;96.40;;;;;;5050682;28;20114;-68
2022/01/15 06:41:20;;;;;;;26.73;14.63;;;-3.30;96.00;;;;;;5048585;28;20036;-69
2022/01/15 06:43:46;;;;;;;20.60;11.27;;;-3.30;96.20;;;;;;5050235;28;20037;-68
2022/01/15 06:46:12;;;;;;;17.48;10.23;;;-3.20;96.30;;;;;;5046985;28;20120;-69
2022/01/15 06:48:43;;;;;;;17.73;8.98;;;-3.30;96.20;;;;;;5037091;28;20121;-68
2022/01/15 06:51:12;;;;;;;14.52;8.02;;;-3.30;95.90;;;;;;5044490;28;20037;-70
2022/01/15 06:53:37;;;;;;;12.57;7.20;;;-3.30;96.20;;;;;;5055874;28;20044;-68
2022/01/15 06:56:06;;;;;;;13.55;7.15;;;-3.40;96.10;;;;;;5053929;28;20028;-69
2022/01/15 06:58:32;;;;;;;13.60;7.18;;;-3.40;96.10;;;;;;5046770;28;20033;-68
2022/01/15 07:00:58;;;;;;;16.50;7.03;;;-3.40;95.90;;;;;;5053535;28;20192;-67
2022/01/15 07:03:23;;;;;;;15.30;8.75;;;-3.40;96.50;;;;;;5040157;28;20033;-68
2022/01/15 07:05:49;;;;;;;17.33;10.10;;;-3.40;96.20;;;;;;5039583;28;20047;-67
2022/01/15 07:08:15;;;;;;;14.90;9.25;;;-3.30;96.00;;;;;;5041984;28;20115;-69
2022/01/15 07:10:43;;;;;;;16.33;9.35;;;-3.20;96.20;;;;;;5038818;28;20034;-69
2022/01/15 07:13:09;;;;;;;16.42;8.23;;;-3.20;96.80;;;;;;5051155;28;20116;-69
2022/01/15 07:15:35;;;;;;;16.92;8.32;;;-3.20;96.90;;;;;;5038753;28;20112;-67
2022/01/15 07:18:07;;;;;;;13.88;7.45;;;-3.20;96.60;;;;;;5048584;28;20031;-69
2022/01/15 07:20:35;;;;;;;14.60;7.38;;;-3.10;96.80;;;;;;5046076;28;21703;-69
2022/01/15 07:23:01;;;;;;;11.52;6.93;;;-2.90;96.50;;;;;;5037805;28;20092;-68
2022/01/15 07:25:26;;;;;;;14.65;7.20;;;-2.90;97.90;;;;;;5037205;28;20096;-70
2022/01/15 07:27:55;;;;;;;13.32;7.13;;;-3.00;98.00;;;;;;5037146;28;20324;-68
2022/01/15 07:30:21;;;;;;;11.45;6.45;;;-3.00;97.80;;;;;;5042217;28;20033;-68
2022/01/15 07:32:47;;;;;;;16.13;9.95;;;-2.90;97.90;;;;;;5046826;28;20041;-68
2022/01/15 07:35:13;;;;;;;20.25;10.05;;;-2.80;97.90;;;;;;5047084;28;20029;-68
2022/01/15 07:37:39;;;;;;;19.63;10.73;;;-2.80;98.00;;;;;;5051792;28;20322;-69
2022/01/15 07:40:08;;;;;;;32.83;16.02;;;-2.90;98.00;;;;;;5043872;28;20071;-68
2022/01/15 07:42:36;;;;;;;35.13;21.50;;;-2.90;98.00;;;;;;5045845;28;20028;-68
2022/01/15 07:45:13;;;;;;;37.17;22.85;;;-2.90;97.80;;;;;;5058417;28;20029;-69
2022/01/15 07:47:41;;;;;;;37.60;21.08;;;-2.80;98.00;;;;;;5063498;28;20357;-68
2022/01/15 07:50:12;;;;;;;30.92;18.35;;;-2.70;98.00;;;;;;5046313;28;20314;-68
2022/01/15 07:52:38;;;;;;;31.67;18.05;;;-2.70;98.00;;;;;;5038671;28;20068;-69
2022/01/15 07:55:05;;;;;;;26.17;16.45;;;-2.60;98.00;;;;;;5041976;28;20413;-69
2022/01/15 07:57:31;;;;;;;26.70;15.63;;;-2.60;98.00;;;;;;5042230;28;20043;-67
2022/01/15 07:59:57;;;;;;;27.58;16.63;;;-2.50;98.00;;;;;;5041789;28;20033;-68
2022/01/15 08:02:26;;;;;;;25.38;16.70;;;-2.50;98.00;;;;;;5039098;28;20022;-68
2022/01/15 08:04:51;;;;;;;48.38;23.45;;;-2.40;98.00;;;;;;5039952;28;20798;-68
2022/01/15 08:07:20;;;;;;;33.33;18.48;;;-2.30;98.00;;;;;;5057032;28;20124;-68
2022/01/15 08:09:46;;;;;;;34.58;19.83;;;-2.30;98.00;;;;;;5039416;28;20029;-68
2022/01/15 08:12:15;;;;;;;30.13;18.35;;;-2.30;98.00;;;;;;5040413;28;20429;-68
2022/01/15 08:14:41;;;;;;;31.90;17.65;;;-2.40;98.00;;;;;;5046278;28;20051;-68
2022/01/15 08:17:07;;;;;;;35.88;19.02;;;-2.40;98.00;;;;;;5038579;28;20037;-68
2022/01/15 08:19:32;;;;;;;40.47;23.52;;;-2.50;98.00;;;;;;5043630;28;20037;-68
2022/01/15 08:21:58;;;;;;;35.80;21.83;;;-2.50;98.00;;;;;;5039434;28;20049;-68
2022/01/15 08:24:23;;;;;;;48.42;28.38;;;-2.50;98.00;;;;;;5039230;28;20033;-67
2022/01/15 08:26:51;;;;;;;40.15;22.90;;;-2.30;98.00;;;;;;5041432;28;20044;-67
2022/01/15 08:29:20;;;;;;;43.47;24.90;;;-2.20;98.00;;;;;;5043699;28;20063;-68
2022/01/15 08:31:49;;;;;;;40.85;24.35;;;-1.90;98.00;;;;;;5040458;28;20037;-67
2022/01/15 08:34:15;;;;;;;40.08;24.73;;;-1.50;98.00;;;;;;5042536;28;20439;-67
2022/01/15 08:36:41;;;;;;;38.67;20.98;;;-1.40;98.00;;;;;;5042320;28;20107;-68
2022/01/15 08:39:08;;;;;;;35.97;20.20;;;-1.00;98.00;;;;;;5041223;28;20067;-67
2022/01/15 08:41:34;;;;;;;50.45;29.23;;;-0.10;98.00;;;;;;5045534;28;20041;-68
2022/01/15 08:44:00;;;;;;;49.78;27.55;;;0.40;98.00;;;;;;5044928;28;20029;-68
2022/01/15 08:46:28;;;;;;;37.92;23.10;;;0.60;98.00;;;;;;5040097;28;20483;-68
2022/01/15 08:48:54;;;;;;;40.22;23.83;;;0.70;98.00;;;;;;5044663;28;20041;-68
2022/01/15 08:51:20;;;;;;;41.88;25.17;;;1.40;98.00;;;;;;5038254;28;20026;-68
2022/01/15 08:53:51;;;;;;;45.00;28.83;;;2.40;98.00;;;;;;5038607;28;20402;-68
2022/01/15 08:56:17;;;;;;;39.90;24.90;;;3.20;96.80;;;;;;5043187;28;20508;-68
2022/01/15 08:58:43;;;;;;;40.88;26.55;;;3.90;92.20;;;;;;5039594;28;20022;-68
2022/01/15 09:01:13;;;;;;;36.95;23.38;;;4.30;89.90;;;;;;5037731;28;20022;-68
2022/01/15 09:03:40;;;;;;;33.22;21.15;;;5.10;90.00;;;;;;5045525;28;20574;-67
2022/01/15 09:06:06;;;;;;;48.58;32.90;;;5.80;85.90;;;;;;5037043;28;20087;-68
2022/01/15 09:08:31;;;;;;;43.45;29.42;;;5.60;82.40;;;;;;5046115;28;20107;-67
2022/01/15 09:10:57;;;;;;;38.20;25.02;;;5.30;84.90;;;;;;5039440;28;20087;-68
2022/01/15 09:13:23;;;;;;;37.10;23.95;;;5.70;84.10;;;;;;5039934;28;20037;-68
2022/01/15 09:15:51;;;;;;;37.35;23.40;;;5.80;84.30;;;;;;5045075;28;20032;-68
2022/01/15 09:18:18;;;;;;;49.65;27.92;;;5.90;82.40;;;;;;5044836;28;20036;-68
2022/01/15 09:20:47;;;;;;;41.83;26.40;;;5.70;83.20;;;;;;5045856;28;20024;-68
2022/01/15 09:23:13;;;;;;;32.85;21.80;;;6.00;82.60;;;;;;5044732;28;20041;-69
2022/01/15 09:25:39;;;;;;;28.10;19.02;;;6.70;82.00;;;;;;5042170;28;20123;-68
2022/01/15 09:30:53;;;;;;;21.98;14.55;;;7.20;77.60;;;;;;5045582;28;20311;-68
2022/01/15 09:33:18;;;;;;;22.92;15.05;;;7.10;77.40;;;;;;5040813;28;20037;-68
2022/01/15 09:35:47;;;;;;;21.80;12.32;;;6.70;78.40;;;;;;5039178;28;20318;-68
2022/01/15 09:38:15;;;;;;;20.02;12.20;;;6.30;79.20;;;;;;5044045;28;20361;-68
2022/01/15 09:40:41;;;;;;;17.63;12.07;;;6.10;80.20;;;;;;5045337;28;20032;-67
2022/01/15 09:43:10;;;;;;;21.35;12.38;;;6.20;80.10;;;;;;5044139;28;20051;-68
2022/01/15 09:45:40;;;;;;;19.13;11.93;;;6.50;79.70;;;;;;5041505;28;20029;-68
2022/01/15 09:48:07;;;;;;;17.63;11.27;;;6.60;78.70;;;;;;5043250;28;20108;-68
2022/01/15 09:50:36;;;;;;;18.90;12.15;;;6.20;79.40;;;;;;5038377;28;20055;-68
2022/01/15 09:53:02;;;;;;;16.38;10.50;;;6.00;80.70;;;;;;5041501;28;20037;-67
2022/01/15 09:55:28;;;;;;;19.40;11.07;;;5.90;81.30;;;;;;5038061;28;20434;-67
2022/01/15 09:57:57;;;;;;;16.48;11.05;;;6.10;81.70;;;;;;5036700;28;20032;-67
2022/01/15 10:00:24;;;;;;;17.73;12.00;;;6.50;80.60;;;;;;5046837;28;20033;-67
2022/01/15 10:02:54;;;;;;;17.75;11.40;;;6.50;79.80;;;;;;5055087;28;20021;-70
2022/01/15 10:05:21;;;;;;;19.20;12.88;;;6.30;81.30;;;;;;5057030;28;20306;-69
2022/01/15 10:07:57;;;;;;;19.77;12.18;;;6.40;81.10;;;;;;5057072;28;20412;-68
2022/01/15 10:10:24;;;;;;;20.73;13.38;;;6.80;80.60;;;;;;5057101;28;20422;-69
2022/01/15 10:12:50;;;;;;;21.55;14.13;;;6.60;80.30;;;;;;5055963;28;20033;-69
2022/01/15 10:15:17;;;;;;;24.15;16.35;;;7.10;80.10;;;;;;5055595;28;20036;-70
2022/01/15 10:17:43;;;;;;;27.17;15.57;;;7.20;79.60;;;;;;5055715;28;20029;-70
2022/01/15 10:20:14;;;;;;;21.05;14.15;;;6.80;79.60;;;;;;5056840;28;20425;-68
2022/01/15 10:22:49;;;;;;;23.00;14.73;;;6.60;80.70;;;;;;5053889;28;20139;-69
2022/01/15 10:25:20;;;;;;;16.75;11.27;;;6.70;80.40;;;;;;5056591;28;20049;-69
2022/01/15 10:27:56;;;;;;;18.67;13.23;;;6.70;80.50;;;;;;5055666;28;20025;-69
2022/01/15 10:30:30;;;;;;;17.27;11.52;;;7.00;80.70;;;;;;5046512;28;20056;-69
2022/01/15 10:33:05;;;;;;;20.27;13.55;;;7.30;80.00;;;;;;5035340;28;20021;-68
2022/01/15 10:35:43;;;;;;;20.75;13.43;;;7.50;79.60;;;;;;5036533;28;20025;-69
2022/01/15 10:38:12;;;;;;;19.27;13.48;;;7.10;79.90;;;;;;5035409;28;20479;-68
2022/01/15 10:40:43;;;;;;;19.52;13.10;;;7.00;80.40;;;;;;5036580;28;20409;-69
2022/01/15 10:43:10;;;;;;;20.98;13.73;;;7.40;80.60;;;;;;5039108;28;20044;-69
2022/01/15 10:45:56;;;;;;;22.08;14.88;;;7.50;79.30;;;;;;5036362;28;20022;-69
2022/01/15 10:48:31;;;;;;;20.25;14.55;;;7.20;80.00;;;;;;5034108;28;20130;-69
2022/01/15 10:50:59;;;;;;;21.52;14.38;;;7.50;79.30;;;;;;5036159;28;20104;-69
2022/01/15 10:53:39;;;;;;;19.95;13.05;;;7.50;79.10;;;;;;5036122;28;20430;-69
2022/01/15 10:56:15;;;;;;;19.95;13.75;;;7.50;80.00;;;;;;5040030;28;20052;-69
2022/01/15 10:58:42;;;;;;;20.50;14.48;;;7.60;79.80;;;;;;5047991;28;20017;-69
2022/01/15 11:01:25;;;;;;;20.48;13.85;;;8.00;78.40;;;;;;5047113;28;20303;-69
2022/01/15 11:03:53;;;;;;;19.63;13.48;;;7.50;79.00;;;;;;5039811;28;20028;-69
2022/01/15 11:06:36;;;;;;;20.25;14.52;;;7.70;79.30;;;;;;5054935;28;20106;-69
2022/01/15 11:09:02;;;;;;;20.95;13.85;;;7.70;79.40;;;;;;5036687;28;20385;-69
2022/01/15 11:11:32;;;;;;;19.02;12.48;;;7.70;79.00;;;;;;5040121;28;20104;-69
2022/01/15 11:13:58;;;;;;;15.25;10.90;;;7.50;79.80;;;;;;5046441;28;20048;-70
2022/01/15 11:16:25;;;;;;;16.58;9.90;;;7.70;78.80;;;;;;5035878;28;20318;-69
2022/01/15 11:18:54;;;;;;;13.85;9.07;;;8.10;76.40;;;;;;5044595;28;20084;-70
2022/01/15 11:21:22;;;;;;;18.45;9.98;;;8.00;76.30;;;;;;5055656;28;20025;-70
2022/01/15 11:23:50;;;;;;;14.15;9.35;;;7.90;76.80;;;;;;5036199;28;20449;-69
2022/01/15 11:26:23;;;;;;;16.58;10.18;;;7.90;77.40;;;;;;5053967;28;20491;-70
2022/01/15 11:28:49;;;;;;;15.25;9.93;;;8.00;77.60;;;;;;5036956;28;20036;-70
2022/01/15 11:31:26;;;;;;;14.63;8.93;;;8.00;78.00;;;;;;5038253;28;20108;-70
2022/01/15 11:33:55;;;;;;;13.13;8.88;;;8.10;77.50;;;;;;5046597;28;20120;-71
2022/01/15 11:36:38;;;;;;;18.85;10.73;;;8.10;77.90;;;;;;5044423;28;20028;-70
2022/01/15 11:39:06;;;;;;;14.73;9.25;;;8.20;78.00;;;;;;5035585;28;20034;-70
2022/01/15 11:41:32;;;;;;;15.68;10.15;;;8.30;77.50;;;;;;5043707;28;20044;-70
2022/01/15 11:43:59;;;;;;;13.45;8.60;;;8.20;77.70;;;;;;5039662;28;20326;-70
2022/01/15 11:46:52;;;;;;;12.88;9.15;;;8.80;76.70;;;;;;5054927;28;20029;-70
2022/01/15 11:49:37;;;;;;;15.02;9.20;;;9.20;75.80;;;;;;5035658;28;20533;-70
2022/01/15 11:52:11;;;;;;;11.77;8.40;;;9.10;76.10;;;;;;5042826;28;20022;-69
2022/01/15 11:54:58;;;;;;;12.85;8.38;;;8.90;75.70;;;;;;5042916;28;20017;-70
2022/01/15 11:57:34;;;;;;;12.77;8.68;;;8.30;77.80;;;;;;5046306;28;20029;-70
2022/01/15 12:00:06;;;;;;;17.42;9.23;;;8.20;77.20;;;;;;5035593;28;20104;-71
2022/01/15 12:02:36;;;;;;;15.32;9.27;;;8.50;76.30;;;;;;5044314;28;20029;-70
2022/01/15 12:05:17;;;;;;;15.23;10.15;;;8.70;77.40;;;;;;5046382;28;20029;-71
2022/01/15 12:07:47;;;;;;;12.95;9.25;;;8.80;75.30;;;;;;5052760;28;20025;-70
2022/01/15 12:10:17;;;;;;;15.60;9.35;;;8.60;76.20;;;;;;5048739;28;20028;-70
2022/01/15 12:12:52;;;;;;;11.88;8.75;;;8.80;76.70;;;;;;5042882;28;20097;-70
2022/01/15 12:15:26;;;;;;;12.20;8.98;;;8.50;77.10;;;;;;5052052;28;20322;-70
2022/01/15 12:18:15;;;;;;;20.08;13.00;;;8.20;78.10;;;;;;5039321;28;20041;-69
2022/01/15 12:20:42;;;;;;;19.98;13.52;;;7.80;80.00;;;;;;5035026;28;20025;-70
2022/01/15 12:23:17;;;;;;;16.60;10.57;;;7.40;80.30;;;;;;5035328;28;20045;-69
2022/01/15 12:25:44;;;;;;;15.48;11.52;;;7.40;81.30;;;;;;5035704;28;20319;-69
2022/01/15 12:28:13;;;;;;;16.63;11.55;;;7.60;81.10;;;;;;5042154;28;20088;-70
2022/01/15 12:30:46;;;;;;;16.65;11.50;;;7.70;81.00;;;;;;5043474;28;20029;-70
2022/01/15 12:33:13;;;;;;;17.90;12.67;;;7.80;81.60;;;;;;5046091;28;20379;-70
2022/01/15 12:35:41;;;;;;;21.17;11.80;;;8.10;80.50;;;;;;5054326;28;20450;-70
2022/01/15 12:38:16;;;;;;;18.27;12.95;;;8.10;80.80;;;;;;5052597;28;20039;-70
2022/01/15 12:40:53;;;;;;;16.38;11.57;;;8.10;80.00;;;;;;5041074;28;20028;-69
2022/01/15 12:43:29;;;;;;;16.85;12.15;;;8.10;80.70;;;;;;5051132;28;20318;-69
2022/01/15 12:45:57;;;;;;;18.95;12.68;;;8.40;80.10;;;;;;5038404;28;20026;-69
2022/01/15 12:48:27;;;;;;;18.90;12.90;;;8.20;80.10;;;;;;5046292;28;20448;-69
2022/01/15 12:50:57;;;;;;;20.92;13.35;;;8.10;80.00;;;;;;5041975;28;20512;-68
2022/01/15 12:53:29;;;;;;;20.67;13.18;;;8.00;80.50;;;;;;5043453;28;20034;-69
2022/01/15 12:55:57;;;;;;;23.40;15.02;;;8.10;80.70;;;;;;5047301;28;20014;-69
2022/01/15 12:58:25;;;;;;;24.67;14.88;;;8.00;80.00;;;;;;5040129;28;20080;-70
2022/01/15 13:00:52;;;;;;;22.23;14.10;;;8.10;80.90;;;;;;5041114;28;20113;-71
2022/01/15 13:03:23;;;;;;;19.70;13.35;;;8.10;80.80;;;;;;5052448;28;20410;-71
2022/01/15 13:05:52;;;;;;;22.80;16.17;;;8.20;80.40;;;;;;5050460;28;20123;-70
2022/01/15 13:08:21;;;;;;;21.33;14.38;;;8.00;80.90;;;;;;5051306;28;20040;-69
2022/01/15 13:11:02;;;;;;;21.13;13.95;;;7.80;81.30;;;;;;5051604;28;20079;-70
2022/01/15 13:14:05;;;;;;;21.17;14.77;;;7.90;81.70;;;;;;5056186;28;20135;-69